AirNav   TITAN Aviation Fuels
 
 931 users online  

45CO Ag-Air Inc Heliport
Mead, Colorado, USA

GOING TO MEAD?


FAA INFORMATION EFFECTIVE 08 SEPTEMBER 2022

Location

FAA Identifier: 45CO
Lat/Long: 40-12-19.9420N 104-58-31.9200W
40-12.332367N 104-58.532000W
40.2055394,-104.9755333
(estimated)
Elevation: 5025 ft. / 1532 m (estimated)
Variation: 12E (1985)
From city: 3 miles SE of MEAD, CO
Time zone: UTC -6 (UTC -7 during Standard Time)
Zip code: 80504

Heliport Operations

Heliport use: Private use. Permission required prior to landing
Activation date: 05/1982
Control tower: no
ARTCC: DENVER CENTER
FSS: DENVER FLIGHT SERVICE STATION
Attendance: MON-FRI 0700-1700
Wind indicator: yes
Segmented circle: no

Heliport Communications

WX AWOS-3 at LMO (9 nm W): 120.0 (303-684-7545)
WX AWOS-3 at EIK (12 nm S): 133.825 (303-604-4339)
WX AWOS-3PT at FNL (15 nm N): 135.075 (970-669-9187)
WX AWOS-3 at BDU (15 nm SW): 118.825 (303-541-9540)
WX AWOS-3 at BJC (19 nm S): PHONE 720-887-8067

Nearby radio navigation aids

VOR radial/distance  VOR name  Freq  Var
BJCr012/19.1JEFFCO VOR/DME115.4011E
DVVr311/24.7MILE HIGH VORTAC114.7008E
GLLr214/26.3GILL VOR/DME114.2013E
DENr320/27.7DENVER VOR/DME117.9008E
FQFr321/35.0FALCON VORTAC116.3011E

Heliport Services

Fuel available: A

Runway Information

Helipad H1

Dimensions: 15 x 15 ft. / 5 x 5 m
Surface: concrete
Latitude: 40-12.332333N
Longitude: 104-58.532000W
Elevation: 5025.0 ft.
Traffic pattern: leftleft

Heliport Ownership and Management from official FAA records

Ownership: Privately-owned
Owner: AG-AIR INC.
4401 HWY 66
LONGMONT, CO 80504
Phone 303-535-0908
Manager: GARY M. OSBORNE
4401 HWY 66
LONGMONT, CO 80504
Phone 303-535-0908

Heliport Operational Statistics

Aircraft based on the field: 2
Helicopters: 2
    

Additional Remarks

FOR CD CTC DENVER APCH AT 303-342-1916.

Instrument Procedures

There are no published instrument procedures at 45CO.

Some nearby airports with instrument procedures:

KLMO - Vance Brand Airport (9 nm W)
KEIK - Erie Municipal Airport (12 nm S)
KFNL - Northern Colorado Regional Airport (15 nm N)
KBJC - Rocky Mountain Metro Airport (19 nm S)
KGXY - Greeley-Weld County Airport (21 nm NE)
 
Loc | Ops | Rwys | IFR | FBO | Links
Com | Nav | Svcs | Stats | Notes

AirBoss

 
Area around 45CO (Ag-Air Inc Heliport)
 
Road maps at: MapQuest Bing Google
 
Aerial photo
No photo
 
Sectional chart

 
Airport distance calculator
Flying to Ag-Air Inc Heliport? Find the distance to fly.

From to 45CO

Sunrise and sunset
Times for 24-Sep-2022
 Local
(UTC-6)
 Zulu
(UTC)
Morning civil twilight06:2312:23
Sunrise06:5012:50
Sunset18:5300:53
Evening civil twilight19:2001:20

Current date and time
Zulu (UTC)  24-Sep-2022 23:22:28
Local (UTC-6)  24-Sep-2022 17:22:28
 
METAR
KLMO 
9nm W 
242255Z AUTO 03004KT 7SM CLR 28/M02 A3018 RMK AO2 T02801021
KEIK 
12nm S 
242255Z AUTO 06006KT 10SM CLR 27/M05 A3016 RMK AO2 T02731048 PWINO
KFNL 
15nm N 
242256Z 16005KT 10SM CLR 27/M01 A3017 RMK AO2 SLP165 T02721011
K1V5 
15nm SW 
AWOS 118.825 303-541-9540
No observation available
KBDU 
15nm SW 
242255Z AUTO 07003KT 10SM CLR 26/M01 A3018 RMK AO2
KBJC 
19nm S 
242245Z 10004KT 10SM SKC 27/M03 A3020
TAF
KBJC 
19nm S 
241740Z 2418/2518 VRB03KT P6SM SKC FM241900 07007KT P6SM SKC FM250500 35005KT P6SM SKC
NOTAMs
Click for the latest NOTAMs
NOTAMs are issued by the DoD/FAA and will open in a separate window not controlled by AirNav.

 

 
 

Would you like to see your business listed on this page?

 If your business provides an interesting product or service to pilots, flight crews, aircraft, or users of the Ag-Air Inc Heliport, you should consider listing it here.  To start the listing process, click on the button below
 
Add a business
 

Other Pages about Ag-Air Inc Heliport

Update a link
 
Copyright © AirNav, LLC. All rights reserved. Privacy Policy  Contact